Terminal Aerodrome Forecast
Issued by NWS Riverton, WY

Home | Current Version | Previous Version | Text Only | Print | Product List | Glossary On
Versions: 1 2 3 4 5 6 7 8 9 10 11 12 13 14
967
FTUS45 KRIW 111216 AAA
TAFRIW
TAF AMD
KRIW 111216Z 1112/1212 23006KT P6SM BKN250 WS015/30035KT
      TEMPO 1112/1114 27015G25KT
     FM111700 VRB05KT P6SM BKN250
     FM120600 VRB05KT P6SM BKN120=

USA.gov is the U.S. government's official web portal to all federal, state and local government web resources and services.